createdAt,value
2019-03-29T00:01:29.287Z,20.70
2019-03-29T00:04:00.844Z,20.00
2019-03-29T00:06:32.508Z,20.63
2019-03-29T00:09:02.506Z,20.03
2019-03-29T00:11:33.123Z,19.70
2019-03-29T00:14:03.717Z,19.10
2019-03-29T00:16:34.545Z,18.97
2019-03-29T00:19:04.531Z,19.37
2019-03-29T00:21:34.718Z,18.60
2019-03-29T00:24:07.064Z,19.87
2019-03-29T00:26:39.203Z,19.30
2019-03-29T00:29:09.166Z,18.60
2019-03-29T00:31:41.278Z,19.53
2019-03-29T00:34:12.494Z,19.23
2019-03-29T00:36:42.501Z,19.93
2019-03-29T00:39:12.479Z,20.57
2019-03-29T00:41:44.270Z,19.83
2019-03-29T00:44:14.162Z,20.87
2019-03-29T00:46:44.641Z,20.80
2019-03-29T00:49:14.970Z,20.13
2019-03-29T00:51:45.588Z,20.60
2019-03-29T00:54:16.689Z,20.97
2019-03-29T00:56:46.721Z,21.10
2019-03-29T00:59:18.415Z,20.67
2019-03-29T01:01:50.649Z,20.13
2019-03-29T01:04:20.683Z,20.20
2019-03-29T01:06:50.733Z,22.70
2019-03-29T01:09:20.842Z,21.70
2019-03-29T01:11:51.736Z,22.73
2019-03-29T01:14:21.911Z,22.00
2019-03-29T01:16:52.223Z,23.47
2019-03-29T01:19:22.217Z,23.03
2019-03-29T01:21:54.853Z,22.60
2019-03-29T01:24:24.762Z,24.07
2019-03-29T01:26:54.680Z,23.80
2019-03-29T01:29:24.731Z,23.80
2019-03-29T01:31:54.526Z,25.47
2019-03-29T01:34:24.458Z,23.13
2019-03-29T01:36:54.714Z,24.70
2019-03-29T01:39:24.573Z,24.87
2019-03-29T01:41:54.611Z,23.63
2019-03-29T01:44:24.554Z,25.20
2019-03-29T01:46:54.563Z,23.77
2019-03-29T01:49:24.538Z,25.30
2019-03-29T01:51:54.594Z,24.20
2019-03-29T01:54:24.508Z,24.20
2019-03-29T01:56:54.323Z,24.40
2019-03-29T01:59:24.385Z,24.13
2019-03-29T02:01:54.368Z,25.20
2019-03-29T02:04:25.098Z,24.87
2019-03-29T02:06:55.986Z,24.73
2019-03-29T02:09:26.031Z,25.33
2019-03-29T02:11:56.274Z,24.17
2019-03-29T02:14:26.287Z,24.27
2019-03-29T02:16:56.263Z,23.77
2019-03-29T02:19:26.327Z,24.63
2019-03-29T02:21:56.219Z,22.80
2019-03-29T02:24:29.184Z,23.37
2019-03-29T02:27:00.945Z,22.97
2019-03-29T02:29:31.157Z,24.10
2019-03-29T02:32:01.376Z,23.03
2019-03-29T02:34:31.461Z,23.20
2019-03-29T02:37:02.281Z,23.47
2019-03-29T02:39:32.725Z,23.33
2019-03-29T02:42:02.948Z,23.97
2019-03-29T02:44:34.848Z,24.40
2019-03-29T02:47:04.507Z,23.63
2019-03-29T02:49:34.575Z,23.17
2019-03-29T02:52:04.600Z,23.83
2019-03-29T02:54:34.840Z,23.83
2019-03-29T02:57:04.834Z,23.33
2019-03-29T02:59:34.948Z,24.63
2019-03-29T03:02:06.574Z,23.57
2019-03-29T03:04:38.674Z,23.73
2019-03-29T03:07:08.575Z,23.27
2019-03-29T03:09:38.637Z,23.20
2019-03-29T03:12:08.544Z,22.37
2019-03-29T03:14:38.935Z,22.10
2019-03-29T03:17:09.298Z,23.23
2019-03-29T03:19:41.579Z,22.90
2019-03-29T03:22:11.466Z,22.30
2019-03-29T03:24:42.667Z,22.50
2019-03-29T03:27:13.622Z,24.40
2019-03-29T03:29:48.022Z,22.80
2019-03-29T03:32:16.847Z,23.87
2019-03-29T03:34:46.939Z,24.90
2019-03-29T03:37:17.145Z,24.33
2019-03-29T03:39:47.164Z,24.87
2019-03-29T03:42:17.019Z,25.77
2019-03-29T03:44:47.029Z,24.40
2019-03-29T03:47:16.946Z,25.47
2019-03-29T03:49:47.988Z,24.43
2019-03-29T03:52:17.971Z,25.23
2019-03-29T03:54:48.028Z,25.83
2019-03-29T03:57:19.306Z,24.03
2019-03-29T03:59:50.619Z,25.23
2019-03-29T04:02:20.644Z,25.63
2019-03-29T04:04:51.812Z,25.23
2019-03-29T04:07:21.772Z,27.27
2019-03-29T04:09:51.836Z,24.47
2019-03-29T04:12:21.738Z,26.73
2019-03-29T04:14:51.721Z,26.83
2019-03-29T04:17:21.949Z,25.63
2019-03-29T04:19:52.269Z,26.73
2019-03-29T04:22:22.192Z,27.03
2019-03-29T04:24:52.130Z,26.70
2019-03-29T04:27:22.031Z,29.13
2019-03-29T04:29:52.125Z,28.23
2019-03-29T04:32:24.726Z,27.13
2019-03-29T04:34:55.822Z,27.60
2019-03-29T04:37:27.468Z,26.60
2019-03-29T04:40:07.139Z,26.83
2019-03-29T04:42:29.153Z,27.13
2019-03-29T04:44:59.999Z,26.63
2019-03-29T04:47:30.242Z,27.70
2019-03-29T04:50:00.231Z,28.33
2019-03-29T04:52:31.607Z,27.13
2019-03-29T04:55:01.584Z,27.60
2019-03-29T04:57:31.639Z,27.37
2019-03-29T05:00:01.659Z,26.27
2019-03-29T05:02:32.036Z,26.67
2019-03-29T05:05:02.413Z,29.33
2019-03-29T05:07:32.362Z,27.13
2019-03-29T05:10:02.406Z,27.50
2019-03-29T05:12:32.343Z,27.70
2019-03-29T05:15:02.425Z,27.33
2019-03-29T05:17:32.367Z,27.27
2019-03-29T05:20:03.481Z,27.70
2019-03-29T05:22:33.514Z,28.20
2019-03-29T05:25:03.518Z,26.80
2019-03-29T05:27:33.444Z,26.77
2019-03-29T05:30:03.484Z,26.17
2019-03-29T05:32:33.442Z,27.03
2019-03-29T05:35:03.458Z,26.60
2019-03-29T05:37:33.417Z,27.93
2019-03-29T05:40:03.342Z,26.00
2019-03-29T05:42:33.202Z,26.77
2019-03-29T05:45:04.580Z,27.00
2019-03-29T05:47:34.523Z,25.53
2019-03-29T05:50:04.767Z,25.87
2019-03-29T05:52:34.667Z,25.30
2019-03-29T05:55:04.702Z,27.17
2019-03-29T05:57:34.944Z,27.10
2019-03-29T06:00:06.404Z,27.07
2019-03-29T06:02:39.106Z,28.27
2019-03-29T06:05:09.239Z,26.43
2019-03-29T06:07:39.295Z,26.47
2019-03-29T06:10:09.395Z,27.83
2019-03-29T06:12:39.387Z,27.03
2019-03-29T06:15:09.717Z,28.27
2019-03-29T06:17:48.433Z,27.60
2019-03-29T06:20:14.431Z,28.80
2019-03-29T06:22:46.910Z,28.93
2019-03-29T06:25:16.936Z,28.67
2019-03-29T06:27:48.147Z,28.50
2019-03-29T06:30:27.898Z,28.13
2019-03-29T06:32:57.783Z,27.13
2019-03-29T06:35:29.910Z,27.90
2019-03-29T06:38:01.461Z,28.93
2019-03-29T06:40:31.429Z,26.50
2019-03-29T06:43:01.248Z,26.87
2019-03-29T06:45:32.338Z,27.90
2019-03-29T06:48:03.168Z,29.73
2019-03-29T06:50:33.188Z,29.53
2019-03-29T06:53:03.331Z,28.63
2019-03-29T06:55:33.453Z,28.60
2019-03-29T06:58:04.165Z,28.50
2019-03-29T07:00:34.351Z,27.43
2019-03-29T07:03:05.323Z,27.80
2019-03-29T07:05:35.404Z,26.43
2019-03-29T07:08:05.319Z,28.67
2019-03-29T07:10:38.203Z,22.00
2019-03-29T07:13:07.761Z,23.60
2019-03-29T07:15:42.020Z,22.83
2019-03-29T07:18:14.840Z,23.13
2019-03-29T07:20:44.966Z,23.60
2019-03-29T07:23:14.816Z,23.93
2019-03-29T07:25:45.119Z,24.23
2019-03-29T07:28:14.954Z,22.17
2019-03-29T07:30:45.058Z,23.30
2019-03-29T07:33:14.944Z,22.90
2019-03-29T07:35:44.947Z,25.13
2019-03-29T07:38:14.982Z,30.53
2019-03-29T07:40:44.834Z,25.43
2019-03-29T07:43:14.755Z,24.37
2019-03-29T07:45:45.754Z,24.20
2019-03-29T07:48:15.608Z,24.70
2019-03-29T07:50:45.777Z,25.80
2019-03-29T07:53:15.720Z,24.73
2019-03-29T07:55:45.822Z,24.77
2019-03-29T07:58:15.779Z,25.00
2019-03-29T08:00:46.050Z,23.70
2019-03-29T08:03:16.140Z,24.37
2019-03-29T08:05:48.196Z,23.87
2019-03-29T08:08:24.720Z,22.13
2019-03-29T08:10:53.183Z,23.10
2019-03-29T08:13:24.542Z,23.70
2019-03-29T08:15:54.951Z,22.80
2019-03-29T08:18:24.916Z,23.03
2019-03-29T08:20:54.983Z,22.73
2019-03-29T08:23:24.917Z,22.97
2019-03-29T08:25:55.063Z,21.93
2019-03-29T08:28:25.237Z,22.47
2019-03-29T08:30:55.329Z,22.30
2019-03-29T08:33:27.968Z,27.67
2019-03-29T08:35:58.225Z,21.30
2019-03-29T08:38:28.331Z,20.77
2019-03-29T08:40:58.307Z,21.93
2019-03-29T08:43:29.780Z,21.90
2019-03-29T08:45:59.930Z,20.43
2019-03-29T08:48:29.967Z,18.87
2019-03-29T08:51:01.620Z,19.42
2019-03-29T08:53:35.795Z,19.05
2019-03-29T08:56:06.386Z,19.67
2019-03-29T08:58:39.010Z,21.07
2019-03-29T09:01:09.000Z,22.20
2019-03-29T09:03:43.570Z,21.35
2019-03-29T09:06:13.604Z,19.15
2019-03-29T09:08:46.561Z,18.65
2019-03-29T09:11:16.954Z,20.20
2019-03-29T09:13:46.913Z,17.05
2019-03-29T09:16:17.022Z,18.15
2019-03-29T09:18:48.016Z,18.05
2019-03-29T09:21:18.233Z,17.75
2019-03-29T09:23:48.251Z,15.20
2019-03-29T09:26:18.315Z,14.73
2019-03-29T09:28:48.315Z,14.23
2019-03-29T09:31:18.258Z,15.00
2019-03-29T09:33:49.023Z,17.20
2019-03-29T09:36:19.159Z,17.02
2019-03-29T09:38:49.336Z,15.15
2019-03-29T09:41:21.527Z,15.32
2019-03-29T09:43:54.263Z,15.38
2019-03-29T09:46:23.270Z,13.93
2019-03-29T09:48:55.343Z,12.95
2019-03-29T09:51:25.196Z,14.33
2019-03-29T09:53:57.760Z,13.25
2019-03-29T09:56:38.570Z,13.40
2019-03-29T09:59:00.483Z,13.30
2019-03-29T10:01:31.326Z,11.83
2019-03-29T10:04:01.377Z,12.03
2019-03-29T10:06:31.412Z,13.33
2019-03-29T10:09:01.317Z,13.32
2019-03-29T10:11:32.847Z,13.48
2019-03-29T10:14:02.678Z,14.00
2019-03-29T10:16:32.749Z,13.65
2019-03-29T10:19:03.472Z,13.40
2019-03-29T10:21:34.211Z,13.28
2019-03-29T10:24:04.265Z,12.50
2019-03-29T10:26:34.659Z,13.00
2019-03-29T10:29:04.534Z,12.00
2019-03-29T10:31:34.539Z,13.00
2019-03-29T10:34:05.018Z,14.38
2019-03-29T10:36:34.897Z,12.43
2019-03-29T10:39:10.697Z,13.28
2019-03-29T10:41:43.767Z,14.15
2019-03-29T10:44:13.702Z,13.65
2019-03-29T10:46:43.807Z,13.83
2019-03-29T10:49:13.770Z,14.23
2019-03-29T10:51:46.153Z,12.93
2019-03-29T10:54:16.233Z,11.93
2019-03-29T10:56:46.353Z,12.27
2019-03-29T10:59:26.767Z,13.47
2019-03-29T11:01:47.827Z,12.87
2019-03-29T11:04:17.907Z,12.75
2019-03-29T11:06:47.831Z,12.90
2019-03-29T11:09:17.772Z,12.60
2019-03-29T11:11:47.739Z,12.00
2019-03-29T11:14:17.579Z,11.93
2019-03-29T11:16:49.715Z,13.00
2019-03-29T11:19:19.578Z,12.00
2019-03-29T11:21:49.702Z,10.03
2019-03-29T11:24:19.522Z,9.63
2019-03-29T11:26:49.430Z,10.05
2019-03-29T11:29:19.323Z,9.95
2019-03-29T11:31:50.134Z,9.00
2019-03-29T11:34:23.135Z,9.40
2019-03-29T11:36:53.504Z,10.08
2019-03-29T11:39:27.328Z,9.93
2019-03-29T11:41:56.224Z,9.85
2019-03-29T11:44:26.283Z,9.53
2019-03-29T11:47:00.774Z,8.65
2019-03-29T11:49:33.028Z,9.50
2019-03-29T11:52:04.243Z,8.78
2019-03-29T11:54:34.087Z,8.95
2019-03-29T11:57:04.070Z,8.80
2019-03-29T11:59:33.912Z,8.33
2019-03-29T12:02:03.832Z,8.68
2019-03-29T12:04:35.906Z,8.98
2019-03-29T12:07:08.168Z,8.03
2019-03-29T12:09:41.089Z,9.05
2019-03-29T12:12:11.015Z,9.40
2019-03-29T12:14:44.059Z,8.83
2019-03-29T12:17:14.038Z,9.23
2019-03-29T12:19:45.614Z,9.40
2019-03-29T12:22:15.579Z,9.50
2019-03-29T12:24:45.701Z,10.10
2019-03-29T12:27:15.973Z,8.80
2019-03-29T12:29:45.939Z,9.43
2019-03-29T12:32:15.817Z,9.78
2019-03-29T12:34:45.658Z,10.18
2019-03-29T12:37:15.521Z,10.53
2019-03-29T12:39:51.675Z,10.57
2019-03-29T12:42:23.160Z,9.83
2019-03-29T12:44:54.547Z,11.23
2019-03-29T12:47:24.481Z,10.95
2019-03-29T12:49:55.858Z,13.15
2019-03-29T12:52:25.743Z,11.70
2019-03-29T12:54:55.734Z,11.30
2019-03-29T12:57:25.606Z,10.17
2019-03-29T13:00:01.132Z,10.37
2019-03-29T13:02:34.358Z,10.40
2019-03-29T13:05:09.471Z,10.40
2019-03-29T13:07:42.499Z,10.27
2019-03-29T13:10:14.129Z,10.83
2019-03-29T13:12:45.995Z,10.40
2019-03-29T13:15:15.810Z,9.93
2019-03-29T13:17:45.722Z,9.60
2019-03-29T13:20:15.746Z,9.43
2019-03-29T13:22:45.580Z,10.63
2019-03-29T13:25:15.680Z,9.50
2019-03-29T13:27:45.618Z,9.80
2019-03-29T13:30:17.998Z,9.37
2019-03-29T13:32:47.941Z,9.85
2019-03-29T13:35:19.044Z,10.57
2019-03-29T13:37:48.937Z,10.53
2019-03-29T13:40:21.178Z,8.93
2019-03-29T13:42:51.082Z,9.53
2019-03-29T13:45:21.532Z,9.20
2019-03-29T13:47:51.587Z,8.80
2019-03-29T13:50:21.624Z,9.97
2019-03-29T13:52:53.702Z,9.87
2019-03-29T13:55:23.710Z,9.60
2019-03-29T13:57:54.824Z,9.97
2019-03-29T14:00:25.094Z,10.33
2019-03-29T14:02:55.243Z,9.73
2019-03-29T14:05:32.471Z,10.20
2019-03-29T14:08:03.530Z,10.90
2019-03-29T14:10:33.345Z,10.03
2019-03-29T14:13:05.865Z,9.80
2019-03-29T14:15:35.855Z,10.33
2019-03-29T14:18:06.123Z,10.17
2019-03-29T14:20:36.259Z,10.50
2019-03-29T14:23:08.994Z,9.93
2019-03-29T14:25:45.294Z,10.67
2019-03-29T14:28:15.173Z,9.37
2019-03-29T14:30:47.984Z,9.23
2019-03-29T14:33:19.349Z,9.37
2019-03-29T14:35:54.196Z,10.20
2019-03-29T14:38:28.921Z,10.33
2019-03-29T14:41:03.243Z,10.03
2019-03-29T14:43:33.046Z,10.30
2019-03-29T14:46:07.711Z,11.53
2019-03-29T14:48:43.551Z,11.63
2019-03-29T14:51:11.983Z,9.60
2019-03-29T14:53:45.079Z,9.50
2019-03-29T14:56:14.938Z,9.67
2019-03-29T14:58:45.167Z,9.10
2019-03-29T15:01:15.629Z,9.30
2019-03-29T15:03:45.669Z,8.87
2019-03-29T15:06:16.940Z,8.90
2019-03-29T15:08:51.725Z,9.30
2019-03-29T15:11:26.458Z,9.37
2019-03-29T15:13:56.470Z,9.30
2019-03-29T15:16:39.113Z,10.03
2019-03-29T15:19:09.047Z,10.10
2019-03-29T15:21:42.616Z,9.83
2019-03-29T15:24:14.587Z,9.17
2019-03-29T15:26:44.797Z,9.10
2019-03-29T15:29:17.888Z,9.37
2019-03-29T15:31:49.942Z,10.23
2019-03-29T15:34:19.918Z,11.97
2019-03-29T15:36:56.190Z,10.70
2019-03-29T15:39:26.308Z,10.40
2019-03-29T15:41:56.486Z,10.13
2019-03-29T15:44:28.861Z,9.53
2019-03-29T15:46:58.931Z,10.17
2019-03-29T15:49:55.316Z,10.00
2019-03-29T15:52:14.479Z,9.50
2019-03-29T15:54:47.346Z,10.33
2019-03-29T15:57:21.662Z,9.73
2019-03-29T15:59:52.951Z,10.30
2019-03-29T16:02:24.839Z,10.07
2019-03-29T16:04:57.130Z,10.47
2019-03-29T16:07:27.561Z,10.93
2019-03-29T16:09:57.549Z,11.57
2019-03-29T16:12:31.729Z,12.73
2019-03-29T16:15:06.869Z,16.20
2019-03-29T16:17:39.568Z,11.47
2019-03-29T16:20:09.626Z,11.13
2019-03-29T16:25:20.897Z,10.77
2019-03-29T16:27:55.243Z,10.93
2019-03-29T16:30:26.003Z,10.00
2019-03-29T16:32:57.497Z,9.80
2019-03-29T16:35:27.461Z,9.67
2019-03-29T16:37:57.877Z,10.23
2019-03-29T16:40:30.868Z,10.27
2019-03-29T16:42:59.908Z,10.50
2019-03-29T16:45:46.856Z,10.57
2019-03-29T16:48:07.137Z,9.47
2019-03-29T16:50:41.783Z,10.77
2019-03-29T16:53:11.583Z,10.37
2019-03-29T16:55:42.534Z,10.23
2019-03-29T16:58:12.885Z,10.77
2019-03-29T17:00:47.042Z,11.50
2019-03-29T17:03:17.092Z,11.93
2019-03-29T17:05:48.044Z,12.23
2019-03-29T17:08:19.248Z,13.20
2019-03-29T17:10:51.091Z,11.63
2019-03-29T17:13:21.155Z,11.67
2019-03-29T17:16:01.217Z,11.37
2019-03-29T17:18:29.542Z,12.90
2019-03-29T17:21:01.307Z,12.80
2019-03-29T17:23:31.650Z,12.53
2019-03-29T17:26:01.607Z,12.57
2019-03-29T17:28:33.617Z,13.53
2019-03-29T17:31:05.475Z,13.57
2019-03-29T17:33:39.569Z,13.27
2019-03-29T17:36:09.537Z,12.83
2019-03-29T17:38:40.673Z,12.97
2019-03-29T17:41:10.515Z,13.43
2019-03-29T17:43:41.747Z,14.17
2019-03-29T17:46:16.588Z,12.43
2019-03-29T17:48:45.317Z,12.83
2019-03-29T17:51:15.460Z,13.70
2019-03-29T17:53:45.434Z,14.07
2019-03-29T17:56:15.422Z,13.23
2019-03-29T17:58:45.323Z,15.40
2019-03-29T18:01:15.554Z,14.77
2019-03-29T18:03:45.681Z,15.23
2019-03-29T18:06:17.450Z,15.77
2019-03-29T18:08:47.365Z,18.97
2019-03-29T18:11:17.357Z,21.43
2019-03-29T18:13:47.327Z,15.57
2019-03-29T18:16:29.920Z,15.07
2019-03-29T18:18:48.822Z,15.13
2019-03-29T18:21:18.843Z,17.00
2019-03-29T18:23:48.708Z,16.37
2019-03-29T18:26:18.870Z,16.20
2019-03-29T18:28:48.781Z,15.37
2019-03-29T18:31:19.041Z,15.30
2019-03-29T18:33:48.882Z,15.10
2019-03-29T18:36:18.906Z,14.90
2019-03-29T18:38:51.479Z,15.77
2019-03-29T18:41:22.389Z,17.07
2019-03-29T18:43:52.326Z,16.00
2019-03-29T18:46:23.958Z,14.80
2019-03-29T18:48:53.852Z,15.10
2019-03-29T18:51:23.867Z,13.97
2019-03-29T18:53:53.903Z,14.90
2019-03-29T18:56:23.889Z,14.33
2019-03-29T18:58:53.771Z,13.40
2019-03-29T19:01:23.838Z,13.97
2019-03-29T19:03:53.831Z,13.17
2019-03-29T19:06:23.776Z,14.40
2019-03-29T19:08:53.918Z,13.00
2019-03-29T19:11:24.693Z,13.73
2019-03-29T19:13:54.984Z,13.53
2019-03-29T19:16:25.018Z,12.07
2019-03-29T19:19:09.139Z,11.50
2019-03-29T19:21:26.823Z,12.27
2019-03-29T19:23:56.872Z,12.70
2019-03-29T19:26:29.230Z,10.90
2019-03-29T19:28:59.299Z,12.03
2019-03-29T19:31:29.395Z,12.43
2019-03-29T19:33:59.880Z,12.03
2019-03-29T19:36:32.364Z,10.97
2019-03-29T19:39:02.234Z,11.67
2019-03-29T19:41:32.738Z,12.23
2019-03-29T19:44:02.648Z,12.37
2019-03-29T19:46:32.680Z,13.23
2019-03-29T19:49:03.294Z,12.57
2019-03-29T19:51:33.297Z,14.13
2019-03-29T19:54:07.862Z,13.10
2019-03-29T19:56:38.059Z,12.67
2019-03-29T19:59:09.393Z,13.07
2019-03-29T20:01:39.279Z,12.60
2019-03-29T20:04:09.754Z,13.77
2019-03-29T20:06:44.730Z,12.63
2019-03-29T20:09:17.968Z,12.03
2019-03-29T20:11:49.571Z,12.17
2019-03-29T20:14:19.963Z,12.40
2019-03-29T20:16:54.986Z,12.80
2019-03-29T20:19:23.612Z,11.67
2019-03-29T20:21:55.771Z,12.33
2019-03-29T20:24:27.619Z,11.97
2019-03-29T20:26:57.392Z,12.50
2019-03-29T20:29:27.191Z,12.47
2019-03-29T20:31:57.232Z,12.60
2019-03-29T20:34:27.096Z,12.73
2019-03-29T20:36:57.507Z,12.57
2019-03-29T20:39:27.304Z,12.07
2019-03-29T20:41:57.363Z,12.23
2019-03-29T20:44:27.356Z,12.30
2019-03-29T20:46:57.427Z,12.07
2019-03-29T20:49:27.338Z,12.20
2019-03-29T20:51:58.379Z,12.17
2019-03-29T20:54:28.300Z,12.10
2019-03-29T20:56:58.409Z,12.80
2019-03-29T20:59:28.395Z,12.63
2019-03-29T21:01:58.770Z,12.03
2019-03-29T21:04:28.630Z,13.03
2019-03-29T21:06:58.875Z,12.97
2019-03-29T21:09:28.779Z,13.77
2019-03-29T21:11:58.650Z,12.57
2019-03-29T21:14:28.471Z,12.40
2019-03-29T21:16:58.411Z,12.93
2019-03-29T21:19:28.419Z,12.60
2019-03-29T21:21:58.286Z,13.03
2019-03-29T21:24:28.125Z,12.40
2019-03-29T21:26:58.157Z,11.67
2019-03-29T21:29:27.975Z,11.97
2019-03-29T21:31:57.906Z,12.40
2019-03-29T21:34:27.802Z,12.53
2019-03-29T21:36:57.767Z,11.80
2019-03-29T21:39:31.026Z,12.20
2019-03-29T21:41:59.370Z,11.57
2019-03-29T21:44:29.185Z,11.87
2019-03-29T21:46:59.121Z,12.70
2019-03-29T21:49:28.957Z,12.70
2019-03-29T21:52:00.135Z,12.27
2019-03-29T21:54:29.991Z,13.00
2019-03-29T21:57:00.450Z,11.97
2019-03-29T21:59:30.356Z,12.57
2019-03-29T22:02:01.780Z,13.07
2019-03-29T22:04:32.342Z,12.53
2019-03-29T22:07:02.366Z,12.33
2019-03-29T22:09:37.267Z,12.63
2019-03-29T22:12:04.264Z,13.10
2019-03-29T22:14:34.271Z,11.57
2019-03-29T22:17:04.355Z,12.30
2019-03-29T22:19:34.169Z,12.57
2019-03-29T22:22:04.117Z,12.53
2019-03-29T22:24:35.159Z,12.27
2019-03-29T22:27:05.231Z,11.93
2019-03-29T22:29:35.247Z,11.60
2019-03-29T22:32:05.093Z,11.70
2019-03-29T22:34:35.162Z,11.43
2019-03-29T22:37:05.010Z,11.73
2019-03-29T22:39:35.464Z,12.40
2019-03-29T22:42:05.310Z,12.67
2019-03-29T22:44:35.988Z,12.30
2019-03-29T22:47:05.851Z,12.90
2019-03-29T22:49:35.792Z,12.03
2019-03-29T22:52:05.618Z,12.60
2019-03-29T22:54:36.221Z,13.00
2019-03-29T22:57:06.038Z,12.50
2019-03-29T22:59:35.863Z,15.50
2019-03-29T23:02:05.978Z,12.53
2019-03-29T23:04:35.894Z,13.10
2019-03-29T23:07:05.978Z,12.37
2019-03-29T23:09:35.814Z,12.97
2019-03-29T23:12:06.083Z,12.03
2019-03-29T23:14:35.932Z,12.90
2019-03-29T23:17:08.538Z,12.97
2019-03-29T23:19:38.767Z,12.80
2019-03-29T23:22:08.801Z,13.03
2019-03-29T23:24:41.439Z,12.77
2019-03-29T23:27:13.411Z,12.33
2019-03-29T23:29:45.880Z,12.73
2019-03-29T23:32:15.904Z,12.17
2019-03-29T23:34:45.798Z,12.37
2019-03-29T23:37:15.700Z,13.13
2019-03-29T23:39:48.366Z,12.67
2019-03-29T23:42:18.494Z,12.80
2019-03-29T23:44:48.349Z,12.40
2019-03-29T23:47:18.273Z,12.03
2019-03-29T23:49:48.073Z,13.00
2019-03-29T23:52:18.004Z,12.20
2019-03-29T23:54:47.836Z,12.03
2019-03-29T23:57:18.903Z,11.63
2019-03-29T23:59:48.742Z,13.03
